createdAt,value
2019-04-07T00:03:10.758Z,32.65
2019-04-07T00:08:18.461Z,33.53
2019-04-07T00:13:26.222Z,32.81
2019-04-07T00:18:33.882Z,33.61
2019-04-07T00:23:41.742Z,33.61
2019-04-07T00:28:49.812Z,33.94
2019-04-07T00:33:56.509Z,34.43
2019-04-07T00:39:04.358Z,34.00
2019-04-07T00:44:12.489Z,33.76
2019-04-07T00:49:19.373Z,34.91
2019-04-07T00:54:28.018Z,34.16
2019-04-07T00:59:35.141Z,35.26
2019-04-07T01:04:41.927Z,35.03
2019-04-07T01:09:49.535Z,33.41
2019-04-07T01:14:57.395Z,33.63
2019-04-07T01:20:05.235Z,35.06
2019-04-07T01:25:12.915Z,35.10
2019-04-07T01:30:21.364Z,34.65
2019-04-07T01:35:28.845Z,35.40
2019-04-07T01:40:36.474Z,36.01
2019-04-07T01:45:43.823Z,36.54
2019-04-07T01:50:51.756Z,35.27
2019-04-07T01:55:58.681Z,34.45
2019-04-07T02:01:06.525Z,34.26
2019-04-07T02:06:13.305Z,35.61
2019-04-07T02:11:21.200Z,34.28
2019-04-07T02:16:28.631Z,36.03
2019-04-07T02:21:36.231Z,35.92
2019-04-07T02:26:44.390Z,35.48
2019-04-07T02:31:52.273Z,33.99
2019-04-07T02:37:00.142Z,35.37
2019-04-07T02:42:07.019Z,35.09
2019-04-07T02:47:14.782Z,35.02
2019-04-07T02:52:23.433Z,35.43
2019-04-07T02:57:31.906Z,37.38
2019-04-07T03:02:39.287Z,37.71
2019-04-07T03:07:47.255Z,36.87
2019-04-07T03:12:53.164Z,36.65
2019-04-07T03:18:00.956Z,37.49
2019-04-07T03:23:09.470Z,39.44
2019-04-07T03:28:17.122Z,42.33
2019-04-07T03:33:25.572Z,42.83
2019-04-07T03:38:32.180Z,39.46
2019-04-07T03:43:40.202Z,40.14
2019-04-07T03:48:47.988Z,39.91
2019-04-07T03:53:54.757Z,40.75
2019-04-07T03:59:03.302Z,40.85
2019-04-07T04:04:09.867Z,42.90
2019-04-07T04:09:17.601Z,40.04
2019-04-07T04:14:25.384Z,41.71
2019-04-07T04:19:33.603Z,46.74
2019-04-07T04:24:40.253Z,42.41
2019-04-07T04:29:50.657Z,44.19
2019-04-07T04:34:54.851Z,46.42
2019-04-07T04:40:02.605Z,43.37
2019-04-07T04:45:10.471Z,42.69
2019-04-07T04:50:18.145Z,45.16
2019-04-07T04:55:25.911Z,48.87
2019-04-07T05:00:34.049Z,46.66
2019-04-07T05:05:41.405Z,48.21
2019-04-07T05:10:48.533Z,47.59
2019-04-07T05:15:56.153Z,47.43
2019-04-07T05:21:04.304Z,47.06
2019-04-07T05:26:11.698Z,46.44
2019-04-07T05:31:19.923Z,44.74
2019-04-07T05:36:26.849Z,44.08
2019-04-07T05:41:33.936Z,44.69
2019-04-07T05:46:42.508Z,44.31
2019-04-07T05:51:48.869Z,44.97
2019-04-07T05:57:00.393Z,44.11
2019-04-07T06:02:04.744Z,44.79
2019-04-07T06:07:12.672Z,42.88
2019-04-07T06:12:20.439Z,42.70
2019-04-07T06:17:28.483Z,41.44
2019-04-07T06:22:35.926Z,41.66
2019-04-07T06:27:45.227Z,41.64
2019-04-07T06:32:51.558Z,42.08
2019-04-07T06:38:04.911Z,40.09
2019-04-07T06:43:06.647Z,39.71
2019-04-07T06:48:13.472Z,38.56
2019-04-07T06:53:21.192Z,38.13
2019-04-07T06:58:28.945Z,36.78
2019-04-07T07:03:38.125Z,36.29
2019-04-07T07:08:46.406Z,35.72
2019-04-07T07:13:52.002Z,35.76
2019-04-07T07:19:01.551Z,35.12
2019-04-07T07:24:07.136Z,34.77
2019-04-07T07:29:16.222Z,34.58
2019-04-07T07:34:22.164Z,32.70
2019-04-07T07:39:29.570Z,33.91
2019-04-07T07:44:37.545Z,33.81
2019-04-07T07:49:43.862Z,33.29
2019-04-07T07:54:50.833Z,30.90
2019-04-07T07:59:58.563Z,30.35
2019-04-07T08:05:05.935Z,29.14
2019-04-07T08:10:13.649Z,28.09
2019-04-07T08:15:25.499Z,28.19
2019-04-07T08:20:28.697Z,27.41
2019-04-07T08:25:36.882Z,28.43
2019-04-07T08:30:47.188Z,27.65
2019-04-07T08:35:51.495Z,27.30
2019-04-07T08:40:58.671Z,27.09
2019-04-07T08:46:06.319Z,27.07
2019-04-07T08:51:14.797Z,26.37
2019-04-07T08:56:24.807Z,27.16
2019-04-07T09:01:29.629Z,26.41
2019-04-07T09:06:35.649Z,28.01
2019-04-07T09:11:43.324Z,27.73
2019-04-07T09:16:54.264Z,27.35
2019-04-07T09:21:58.426Z,26.95
2019-04-07T09:27:06.207Z,27.37
2019-04-07T09:32:13.837Z,27.05
2019-04-07T09:37:22.104Z,25.72
2019-04-07T09:42:29.116Z,26.16
2019-04-07T09:47:36.918Z,24.20
2019-04-07T09:52:45.823Z,24.35
2019-04-07T09:57:52.674Z,24.17
2019-04-07T10:02:59.178Z,22.19
2019-04-07T10:08:07.313Z,21.42
2019-04-07T10:13:16.187Z,22.88
2019-04-07T10:18:22.917Z,19.59
2019-04-07T10:23:30.040Z,19.42
2019-04-07T10:28:40.210Z,19.59
2019-04-07T10:33:44.155Z,19.63
2019-04-07T10:38:51.797Z,18.08
2019-04-07T10:44:00.002Z,16.41
2019-04-07T10:49:06.877Z,16.71
2019-04-07T10:54:14.481Z,15.33
2019-04-07T10:59:22.440Z,15.14
2019-04-07T11:04:30.625Z,14.88
2019-04-07T11:09:37.574Z,15.30
2019-04-07T11:14:45.540Z,13.55
2019-04-07T11:19:53.146Z,14.45
2019-04-07T11:24:59.745Z,13.81
2019-04-07T11:30:08.129Z,13.17
2019-04-07T11:35:15.631Z,13.06
2019-04-07T11:40:23.478Z,12.70
2019-04-07T11:45:31.395Z,13.86
2019-04-07T11:50:39.616Z,13.77
2019-04-07T11:55:47.515Z,13.96
2019-04-07T12:00:55.092Z,14.65
2019-04-07T12:06:02.767Z,13.49
2019-04-07T12:11:13.105Z,14.38
2019-04-07T12:16:18.529Z,12.63
2019-04-07T12:21:25.799Z,12.79
2019-04-07T12:26:34.659Z,11.36
2019-04-07T12:31:40.421Z,11.61
2019-04-07T12:36:47.636Z,11.41
2019-04-07T12:41:56.825Z,11.98
2019-04-07T12:47:01.950Z,12.17
2019-04-07T12:52:09.734Z,11.13
2019-04-07T12:57:16.861Z,11.47
2019-04-07T13:02:24.060Z,11.12
2019-04-07T13:07:31.435Z,11.57
2019-04-07T13:12:38.741Z,12.01
2019-04-07T13:17:45.162Z,11.45
2019-04-07T13:22:53.109Z,9.84
2019-04-07T13:28:00.502Z,9.56
2019-04-07T13:33:08.161Z,9.92
2019-04-07T13:38:17.505Z,8.85
2019-04-07T13:43:23.838Z,9.83
2019-04-07T13:48:32.272Z,10.32
2019-04-07T13:53:39.830Z,10.12
2019-04-07T13:58:47.688Z,10.02
2019-04-07T14:03:58.559Z,9.90
2019-04-07T14:09:04.121Z,9.64
2019-04-07T14:14:09.886Z,10.10
2019-04-07T14:19:17.809Z,10.24
2019-04-07T14:24:25.272Z,9.62
2019-04-07T14:29:33.918Z,9.73
2019-04-07T14:34:41.277Z,9.77
2019-04-07T14:39:47.753Z,9.75
2019-04-07T14:44:55.572Z,9.10
2019-04-07T14:50:03.763Z,9.29
2019-04-07T14:55:10.950Z,9.95
2019-04-07T15:00:18.352Z,10.19
2019-04-07T15:05:25.459Z,10.31
2019-04-07T15:10:32.946Z,9.40
2019-04-07T15:15:39.971Z,9.25
2019-04-07T15:20:47.322Z,9.57
2019-04-07T15:25:54.677Z,10.19
2019-04-07T15:31:03.154Z,9.70
2019-04-07T15:36:10.691Z,9.27
2019-04-07T15:41:19.098Z,9.56
2019-04-07T15:46:24.382Z,9.27
2019-04-07T15:51:35.058Z,10.09
2019-04-07T15:56:39.445Z,9.55
2019-04-07T16:01:47.918Z,9.92
2019-04-07T16:06:56.540Z,32.26
2019-04-07T16:12:03.775Z,10.69
2019-04-07T16:17:11.259Z,10.72
2019-04-07T16:22:17.799Z,11.45
2019-04-07T16:27:26.049Z,9.09
2019-04-07T16:32:33.865Z,9.96
2019-04-07T16:37:40.303Z,10.23
2019-04-07T16:43:01.218Z,9.85
2019-04-07T16:47:55.256Z,9.97
2019-04-07T16:53:06.174Z,9.07
2019-04-07T16:58:11.766Z,19.40
2019-04-07T17:03:19.396Z,10.95
2019-04-07T17:08:28.696Z,9.93
2019-04-07T17:13:39.475Z,9.68
2019-04-07T17:18:41.673Z,13.62
2019-04-07T17:23:53.301Z,10.04
2019-04-07T17:28:58.223Z,19.32
2019-04-07T17:34:07.365Z,17.36
2019-04-07T17:39:11.477Z,9.71
2019-04-07T17:44:23.026Z,13.27
2019-04-07T17:49:30.814Z,9.63
2019-04-07T17:54:34.980Z,9.25
2019-04-07T17:59:45.762Z,10.12
2019-04-07T18:04:53.410Z,9.93
2019-04-07T18:09:59.442Z,10.76
2019-04-07T18:15:09.232Z,10.77
2019-04-07T18:20:14.015Z,11.86
2019-04-07T18:25:20.571Z,11.90
2019-04-07T18:30:31.468Z,12.48
2019-04-07T18:35:37.665Z,14.32
2019-04-07T18:40:44.006Z,17.26
2019-04-07T18:45:53.336Z,16.56
2019-04-07T18:50:58.841Z,16.20
2019-04-07T18:56:09.485Z,14.89
2019-04-07T19:01:14.050Z,13.82
2019-04-07T19:06:21.188Z,14.18
2019-04-07T19:11:29.725Z,16.10
2019-04-07T19:16:38.292Z,14.15
2019-04-07T19:21:46.289Z,13.84
2019-04-07T19:26:54.604Z,13.54
2019-04-07T19:32:00.169Z,12.64
2019-04-07T19:37:08.149Z,13.24
2019-04-07T19:42:16.399Z,12.99
2019-04-07T19:47:23.066Z,12.89
2019-04-07T19:52:34.251Z,12.77
2019-04-07T19:57:39.253Z,13.55
2019-04-07T20:02:47.069Z,13.97
2019-04-07T20:07:54.897Z,13.53
2019-04-07T20:13:04.840Z,13.44
2019-04-07T20:18:10.432Z,14.42
2019-04-07T20:23:18.446Z,13.90
2019-04-07T20:28:25.185Z,13.78
2019-04-07T20:33:34.075Z,14.21
2019-04-07T20:38:40.331Z,13.59
2019-04-07T20:43:48.415Z,14.33
2019-04-07T20:48:56.006Z,13.98
2019-04-07T20:54:03.752Z,14.29
2019-04-07T20:59:10.117Z,14.79
2019-04-07T21:04:19.749Z,15.04
2019-04-07T21:09:25.654Z,15.25
2019-04-07T21:14:34.681Z,15.47
2019-04-07T21:19:41.189Z,15.35
2019-04-07T21:24:51.402Z,15.81
2019-04-07T21:29:57.985Z,15.99
2019-04-07T21:35:04.837Z,16.04
2019-04-07T21:40:13.214Z,16.39
2019-04-07T21:45:32.681Z,16.54
2019-04-07T21:50:28.512Z,17.12
2019-04-07T21:55:40.138Z,16.46
2019-04-07T22:00:45.772Z,16.16
2019-04-07T22:05:57.231Z,16.62
2019-04-07T22:11:01.547Z,17.05
2019-04-07T22:16:08.408Z,16.66
2019-04-07T22:21:17.052Z,17.40
2019-04-07T22:26:23.509Z,18.07
2019-04-07T22:31:31.355Z,19.24
2019-04-07T22:36:39.212Z,19.29
2019-04-07T22:41:46.793Z,19.22
2019-04-07T22:46:54.524Z,20.15
2019-04-07T22:52:03.405Z,19.67
2019-04-07T22:57:12.773Z,18.73
2019-04-07T23:02:17.075Z,20.49
2019-04-07T23:07:24.202Z,19.91
2019-04-07T23:12:32.785Z,19.71
2019-04-07T23:17:39.812Z,20.43
2019-04-07T23:22:46.699Z,19.79
2019-04-07T23:27:54.312Z,20.03
2019-04-07T23:33:01.869Z,20.15
2019-04-07T23:38:08.161Z,20.45
2019-04-07T23:43:15.830Z,20.21
2019-04-07T23:48:24.299Z,21.25
2019-04-07T23:53:31.348Z,21.65
2019-04-07T23:58:39.029Z,22.62
